Bookmark and Share
Track history (hours):
 

British Envoy

Last reported at 2014-Apr-23 23:07 UTC. Time now 2014-Apr-24 02:01 UTC.
Position S 33°56' E 027°03'.

Length 184.2 m; beam 27.4 m; draft 11.3 m.

Type: Tanker. MMSI: 235011280.

NotesDate/timePositionNaut miles runAvg speedWind from/ knotsBaromVisibWave heightAir tempDewpointWater temp
2014-Apr-23 23:07S 33°56' E 027°03'7 9.4
2014-Apr-23 22:23S 33°58' E 026°55'8613.5
2014-Apr-23 16:00S 34°30' E 025°18'8612.3 080 / 91017.410.8 20.010.914.0
2014-Apr-23 09:00S 34°48' E 023°36'5112.7 110 / 111019.3 5.4 0.517.015.316.5
2014-Apr-23 05:00S 35°00' E 022°36'17812.7 090 / 281016.9 5.4 0.516.014.315.0
2014-Apr-22 15:00S 34°48' E 019°00'14 9.4 150 / 141016.010.8 19.011.8
2014-Apr-22 13:27S 34°45' E 018°43'1313.0
2014-Apr-22 12:29S 34°40' E 018°29'1312.8
2014-Apr-22 11:27S 34°36' E 018°14'1010.1
2014-Apr-22 10:30S 34°28' E 018°07'1212.2
2014-Apr-22 09:33S 34°16' E 018°07'4 7.6
2014-Apr-22 09:00S 34°12' E 018°06'919.8 180 / 171015.310.8 1.020.013.020.5
2014-Apr-22 08:33S 34°04' E 018°11'1312.9
2014-Apr-22 07:32S 33°53' E 018°18'7 6.9
2014-Apr-22 06:33S 33°55' E 018°26'0 0.3
2014-Apr-22 05:32S 33°55' E 018°27'2 0.1
2014-Apr-20 14:00S 33°54' E 018°24'2 0.3 130 / 51014.8 5.4 21.016.0
2014-Apr-20 07:33S 33°55' E 018°26'0 0.2
2014-Apr-20 06:33S 33°55' E 018°26'0 0.0
2014-Apr-20 05:33S 33°55' E 018°26'0 0.0
2014-Apr-20 04:33S 33°55' E 018°26'0 0.0
2014-Apr-19 07:33S 33°55' E 018°26'3 2.8
2014-Apr-19 06:33S 33°53' E 018°25'5 4.5
2014-Apr-19 05:32S 33°52' E 018°19'8 7.7
2014-Apr-19 04:33S 33°50' E 018°10'17 1.7
2014-Apr-18 18:18S 33°56' E 017°51'3 1.5
2014-Apr-18 16:00S 33°54' E 017°48'7 2.8 150 / 141019.210.8 0.518.016.317.0
2014-Apr-18 13:29S 33°60' E 017°53'8 6.7
2014-Apr-18 12:15S 33°56' E 018°02'6 3.6
2014-Apr-18 10:32S 33°53' E 018°09'1 1.1
2014-Apr-18 09:13S 33°52' E 018°10'3 4.4
2014-Apr-18 08:33S 33°50' E 018°13'19 8.2
2014-Apr-18 06:16S 34°09' E 018°11'811.3
2014-Apr-18 05:33S 34°16' E 018°07'1211.8
2014-Apr-18 04:33S 34°28' E 018°05'59 7.3
2014-Apr-17 20:33S 35°10' E 018°55'1212.0
2014-Apr-17 19:32S 35°11' E 019°10'1311.8
2014-Apr-17 18:28S 35°15' E 019°25'1612.1
2014-Apr-17 17:10S 35°13' E 019°44'1112.3
2014-Apr-17 16:17S 35°11' E 019°57'2312.0
2014-Apr-17 14:21S 35°03' E 020°23'219 6.1
2014-Apr-16 02:22S 34°28' E 024°46'10711.7
2014-Apr-15 17:16S 33°54' E 026°48'40 8.5
2014-Apr-15 12:31S 33°41' E 027°34'22512.5
2014-Apr-14 18:31S 30°55' E 030°35'3316.3
2014-Apr-14 16:30S 30°27' E 030°55'1415.0
2014-Apr-14 15:34S 30°15' E 031°03'1313.4
2014-Apr-14 14:34S 30°02' E 031°08'1212.0
2014-Apr-14 13:33S 29°51' E 031°06'  

Dump ship's entire track history

sailing weather and tide predictions

British Envoy — MNAN4 — position and weather